sensor_id;sensor_type;location;lat;lon;timestamp;pressure;altitude;pressure_sealevel;temperature
22269;BMP280;11303;50.772;19.670;2024-03-08T00:01:39;99573.16;;;-4.33
22269;BMP280;11303;50.772;19.670;2024-03-08T00:03:40;99568.06;;;-4.33
22269;BMP280;11303;50.772;19.670;2024-03-08T00:05:42;99572.72;;;-4.30
22269;BMP280;11303;50.772;19.670;2024-03-08T00:07:43;99566.53;;;-4.34
22269;BMP280;11303;50.772;19.670;2024-03-08T00:09:45;99572.38;;;-4.33
22269;BMP280;11303;50.772;19.670;2024-03-08T00:11:47;99570.06;;;-4.35
22269;BMP280;11303;50.772;19.670;2024-03-08T00:13:50;99573.44;;;-4.41
22269;BMP280;11303;50.772;19.670;2024-03-08T00:15:52;99564.88;;;-4.47
22269;BMP280;11303;50.772;19.670;2024-03-08T00:17:53;99570.59;;;-4.51
22269;BMP280;11303;50.772;19.670;2024-03-08T00:19:55;99576.25;;;-4.49
22269;BMP280;11303;50.772;19.670;2024-03-08T00:21:57;99572.59;;;-4.53
22269;BMP280;11303;50.772;19.670;2024-03-08T00:23:58;99569.06;;;-4.52
22269;BMP280;11303;50.772;19.670;2024-03-08T00:26:00;99569.84;;;-4.52
22269;BMP280;11303;50.772;19.670;2024-03-08T00:28:02;99567.28;;;-4.52
22269;BMP280;11303;50.772;19.670;2024-03-08T00:30:04;99569.28;;;-4.54
22269;BMP280;11303;50.772;19.670;2024-03-08T00:32:06;99570.47;;;-4.56
22269;BMP280;11303;50.772;19.670;2024-03-08T00:34:12;99562.31;;;-4.58
22269;BMP280;11303;50.772;19.670;2024-03-08T00:36:14;99573.44;;;-4.60
22269;BMP280;11303;50.772;19.670;2024-03-08T00:38:15;99572.03;;;-4.55
22269;BMP280;11303;50.772;19.670;2024-03-08T00:40:17;99566.09;;;-4.49
22269;BMP280;11303;50.772;19.670;2024-03-08T00:42:20;99557.16;;;-4.52
22269;BMP280;11303;50.772;19.670;2024-03-08T00:44:21;99560.66;;;-4.53
22269;BMP280;11303;50.772;19.670;2024-03-08T00:46:23;99562.84;;;-4.56
22269;BMP280;11303;50.772;19.670;2024-03-08T00:48:24;99574.16;;;-4.52
22269;BMP280;11303;50.772;19.670;2024-03-08T00:50:26;99562.22;;;-4.52
22269;BMP280;11303;50.772;19.670;2024-03-08T00:52:28;99566.66;;;-4.47
22269;BMP280;11303;50.772;19.670;2024-03-08T00:54:29;99563.69;;;-4.44
22269;BMP280;11303;50.772;19.670;2024-03-08T00:56:31;99567.00;;;-4.44
22269;BMP280;11303;50.772;19.670;2024-03-08T00:58:38;99561.94;;;-4.44
22269;BMP280;11303;50.772;19.670;2024-03-08T01:00:40;99559.59;;;-4.45
22269;BMP280;11303;50.772;19.670;2024-03-08T01:02:41;99562.00;;;-4.50
22269;BMP280;11303;50.772;19.670;2024-03-08T01:04:43;99561.47;;;-4.52
22269;BMP280;11303;50.772;19.670;2024-03-08T01:06:45;99559.75;;;-4.58
22269;BMP280;11303;50.772;19.670;2024-03-08T01:08:48;99565.06;;;-4.60
22269;BMP280;11303;50.772;19.670;2024-03-08T01:10:53;99559.97;;;-4.60
22269;BMP280;11303;50.772;19.670;2024-03-08T01:12:55;99561.28;;;-4.57
22269;BMP280;11303;50.772;19.670;2024-03-08T01:14:58;99560.97;;;-4.61
22269;BMP280;11303;50.772;19.670;2024-03-08T01:16:59;99556.47;;;-4.66
22269;BMP280;11303;50.772;19.670;2024-03-08T01:19:01;99549.00;;;-4.79
22269;BMP280;11303;50.772;19.670;2024-03-08T01:21:04;99559.69;;;-4.96
22269;BMP280;11303;50.772;19.670;2024-03-08T01:23:06;99543.59;;;-5.08
22269;BMP280;11303;50.772;19.670;2024-03-08T01:25:08;99557.09;;;-5.21
22269;BMP280;11303;50.772;19.670;2024-03-08T01:27:10;99552.13;;;-5.34
22269;BMP280;11303;50.772;19.670;2024-03-08T01:29:12;99562.34;;;-5.41
22269;BMP280;11303;50.772;19.670;2024-03-08T01:31:14;99548.72;;;-5.47
22269;BMP280;11303;50.772;19.670;2024-03-08T01:33:15;99552.44;;;-5.49
22269;BMP280;11303;50.772;19.670;2024-03-08T01:35:17;99546.78;;;-5.51
22269;BMP280;11303;50.772;19.670;2024-03-08T01:37:19;99545.06;;;-5.57
22269;BMP280;11303;50.772;19.670;2024-03-08T01:39:21;99542.94;;;-5.60
22269;BMP280;11303;50.772;19.670;2024-03-08T01:41:23;99534.72;;;-5.56
22269;BMP280;11303;50.772;19.670;2024-03-08T01:43:27;99543.88;;;-5.55
22269;BMP280;11303;50.772;19.670;2024-03-08T01:45:29;99541.16;;;-5.53
22269;BMP280;11303;50.772;19.670;2024-03-08T01:47:32;99537.91;;;-5.35
22269;BMP280;11303;50.772;19.670;2024-03-08T01:49:34;99534.22;;;-5.33
22269;BMP280;11303;50.772;19.670;2024-03-08T01:51:35;99534.59;;;-5.36
22269;BMP280;11303;50.772;19.670;2024-03-08T01:53:37;99534.59;;;-5.36
22269;BMP280;11303;50.772;19.670;2024-03-08T01:55:39;99527.22;;;-5.37
22269;BMP280;11303;50.772;19.670;2024-03-08T01:57:42;99531.34;;;-5.43
22269;BMP280;11303;50.772;19.670;2024-03-08T01:59:44;99536.41;;;-5.43
22269;BMP280;11303;50.772;19.670;2024-03-08T02:01:46;99519.59;;;-5.37
22269;BMP280;11303;50.772;19.670;2024-03-08T02:03:47;99525.63;;;-5.32
22269;BMP280;11303;50.772;19.670;2024-03-08T02:05:49;99525.63;;;-5.32
22269;BMP280;11303;50.772;19.670;2024-03-08T02:07:51;99524.63;;;-5.31
22269;BMP280;11303;50.772;19.670;2024-03-08T02:09:52;99521.94;;;-5.36
22269;BMP280;11303;50.772;19.670;2024-03-08T02:11:55;99521.78;;;-5.41
22269;BMP280;11303;50.772;19.670;2024-03-08T02:13:57;99513.84;;;-5.51
22269;BMP280;11303;50.772;19.670;2024-03-08T02:16:00;99532.34;;;-5.44
22269;BMP280;11303;50.772;19.670;2024-03-08T02:18:02;99517.63;;;-5.35
22269;BMP280;11303;50.772;19.670;2024-03-08T02:20:04;99517.44;;;-5.34
22269;BMP280;11303;50.772;19.670;2024-03-08T02:22:06;99513.59;;;-5.43
22269;BMP280;11303;50.772;19.670;2024-03-08T02:24:07;99512.69;;;-5.49
22269;BMP280;11303;50.772;19.670;2024-03-08T02:26:10;99511.16;;;-5.56
22269;BMP280;11303;50.772;19.670;2024-03-08T02:28:12;99511.56;;;-5.66
22269;BMP280;11303;50.772;19.670;2024-03-08T02:30:14;99512.25;;;-5.77
22269;BMP280;11303;50.772;19.670;2024-03-08T02:32:16;99512.28;;;-5.91
22269;BMP280;11303;50.772;19.670;2024-03-08T02:34:17;99508.63;;;-6.02
22269;BMP280;11303;50.772;19.670;2024-03-08T02:36:19;99512.56;;;-6.06
22269;BMP280;11303;50.772;19.670;2024-03-08T02:38:22;99514.09;;;-6.05
22269;BMP280;11303;50.772;19.670;2024-03-08T02:40:24;99512.97;;;-6.09
22269;BMP280;11303;50.772;19.670;2024-03-08T02:42:25;99516.69;;;-6.11
22269;BMP280;11303;50.772;19.670;2024-03-08T02:44:27;99522.88;;;-6.14
22269;BMP280;11303;50.772;19.670;2024-03-08T02:46:29;99516.50;;;-6.17
22269;BMP280;11303;50.772;19.670;2024-03-08T02:48:31;99504.59;;;-6.16
22269;BMP280;11303;50.772;19.670;2024-03-08T02:50:34;99510.44;;;-6.16
22269;BMP280;11303;50.772;19.670;2024-03-08T02:52:38;99501.09;;;-6.08
22269;BMP280;11303;50.772;19.670;2024-03-08T02:54:40;99503.00;;;-6.04
22269;BMP280;11303;50.772;19.670;2024-03-08T02:56:41;99495.78;;;-6.00
22269;BMP280;11303;50.772;19.670;2024-03-08T02:58:43;99503.78;;;-6.03
22269;BMP280;11303;50.772;19.670;2024-03-08T03:00:50;99506.91;;;-6.01
22269;BMP280;11303;50.772;19.670;2024-03-08T03:02:51;99509.03;;;-6.05
22269;BMP280;11303;50.772;19.670;2024-03-08T03:04:56;99506.16;;;-6.08
22269;BMP280;11303;50.772;19.670;2024-03-08T03:06:57;99499.34;;;-6.15
22269;BMP280;11303;50.772;19.670;2024-03-08T03:08:59;99507.13;;;-6.16
22269;BMP280;11303;50.772;19.670;2024-03-08T03:11:01;99507.19;;;-6.23
22269;BMP280;11303;50.772;19.670;2024-03-08T03:13:02;99506.19;;;-6.28
22269;BMP280;11303;50.772;19.670;2024-03-08T03:15:06;99508.38;;;-6.39
22269;BMP280;11303;50.772;19.670;2024-03-08T03:17:08;99512.84;;;-6.41
22269;BMP280;11303;50.772;19.670;2024-03-08T03:19:11;99508.97;;;-6.43
22269;BMP280;11303;50.772;19.670;2024-03-08T03:21:13;99507.78;;;-6.41
22269;BMP280;11303;50.772;19.670;2024-03-08T03:23:15;99509.13;;;-6.32
22269;BMP280;11303;50.772;19.670;2024-03-08T03:25:22;99509.91;;;-6.24
22269;BMP280;11303;50.772;19.670;2024-03-08T03:27:30;99515.13;;;-6.19
22269;BMP280;11303;50.772;19.670;2024-03-08T03:29:32;99505.00;;;-6.19
22269;BMP280;11303;50.772;19.670;2024-03-08T03:31:33;99510.44;;;-6.16
22269;BMP280;11303;50.772;19.670;2024-03-08T03:33:35;99502.84;;;-6.16
22269;BMP280;11303;50.772;19.670;2024-03-08T03:35:38;99502.84;;;-6.16
22269;BMP280;11303;50.772;19.670;2024-03-08T03:37:41;99503.63;;;-6.15
22269;BMP280;11303;50.772;19.670;2024-03-08T03:39:44;99513.38;;;-6.19
22269;BMP280;11303;50.772;19.670;2024-03-08T03:41:54;99509.91;;;-6.31
22269;BMP280;11303;50.772;19.670;2024-03-08T03:43:55;99515.22;;;-6.39
22269;BMP280;11303;50.772;19.670;2024-03-08T03:45:57;99512.47;;;-6.44
22269;BMP280;11303;50.772;19.670;2024-03-08T03:47:58;99513.09;;;-6.49
22269;BMP280;11303;50.772;19.670;2024-03-08T03:50:02;99514.06;;;-6.50
22269;BMP280;11303;50.772;19.670;2024-03-08T03:52:04;99523.78;;;-6.47
22269;BMP280;11303;50.772;19.670;2024-03-08T03:54:06;99511.69;;;-6.45
22269;BMP280;11303;50.772;19.670;2024-03-08T03:56:08;99522.19;;;-6.41
22269;BMP280;11303;50.772;19.670;2024-03-08T03:58:10;99520.22;;;-6.33
22269;BMP280;11303;50.772;19.670;2024-03-08T04:00:13;99511.25;;;-6.28
22269;BMP280;11303;50.772;19.670;2024-03-08T04:02:14;99514.19;;;-6.25
22269;BMP280;11303;50.772;19.670;2024-03-08T04:04:16;99513.59;;;-6.27
22269;BMP280;11303;50.772;19.670;2024-03-08T04:06:17;99517.09;;;-6.28
22269;BMP280;11303;50.772;19.670;2024-03-08T04:08:19;99500.97;;;-6.34
22269;BMP280;11303;50.772;19.670;2024-03-08T04:10:21;99504.06;;;-6.32
22269;BMP280;11303;50.772;19.670;2024-03-08T04:12:22;99504.47;;;-6.35
22269;BMP280;11303;50.772;19.670;2024-03-08T04:14:24;99504.06;;;-6.32
22269;BMP280;11303;50.772;19.670;2024-03-08T04:16:26;99512.84;;;-6.34
22269;BMP280;11303;50.772;19.670;2024-03-08T04:18:28;99507.00;;;-6.35
22269;BMP280;11303;50.772;19.670;2024-03-08T04:20:29;99510.91;;;-6.39
22269;BMP280;11303;50.772;19.670;2024-03-08T04:22:31;99499.22;;;-6.33
22269;BMP280;11303;50.772;19.670;2024-03-08T04:24:34;99512.81;;;-6.27
22269;BMP280;11303;50.772;19.670;2024-03-08T04:26:35;99515.38;;;-6.34
22269;BMP280;11303;50.772;19.670;2024-03-08T04:28:37;99511.09;;;-6.34
22269;BMP280;11303;50.772;19.670;2024-03-08T04:30:41;99508.16;;;-6.30
22269;BMP280;11303;50.772;19.670;2024-03-08T04:32:43;99510.50;;;-6.29
22269;BMP280;11303;50.772;19.670;2024-03-08T04:34:45;99504.28;;;-6.40
22269;BMP280;11303;50.772;19.670;2024-03-08T04:36:48;99508.59;;;-6.47
22269;BMP280;11303;50.772;19.670;2024-03-08T04:38:50;99503.72;;;-6.48
22269;BMP280;11303;50.772;19.670;2024-03-08T04:40:52;99509.34;;;-6.40
22269;BMP280;11303;50.772;19.670;2024-03-08T04:42:54;99510.16;;;-6.39
22269;BMP280;11303;50.772;19.670;2024-03-08T04:44:56;99508.00;;;-6.42
22269;BMP280;11303;50.772;19.670;2024-03-08T04:46:58;99502.56;;;-6.53
22269;BMP280;11303;50.772;19.670;2024-03-08T04:48:59;99509.00;;;-6.57
22269;BMP280;11303;50.772;19.670;2024-03-08T04:51:02;99511.16;;;-6.60
22269;BMP280;11303;50.772;19.670;2024-03-08T04:53:05;99507.47;;;-6.64
22269;BMP280;11303;50.772;19.670;2024-03-08T04:55:09;99504.94;;;-6.64
22269;BMP280;11303;50.772;19.670;2024-03-08T04:57:11;99509.03;;;-6.63
22269;BMP280;11303;50.772;19.670;2024-03-08T04:59:12;99498.53;;;-6.60
22269;BMP280;11303;50.772;19.670;2024-03-08T05:01:15;99504.53;;;-6.61
22269;BMP280;11303;50.772;19.670;2024-03-08T05:03:16;99506.09;;;-6.60
22269;BMP280;11303;50.772;19.670;2024-03-08T05:05:19;99506.09;;;-6.67
22269;BMP280;11303;50.772;19.670;2024-03-08T05:07:20;99504.34;;;-6.73
22269;BMP280;11303;50.772;19.670;2024-03-08T05:09:22;99499.91;;;-6.78
22269;BMP280;11303;50.772;19.670;2024-03-08T05:11:24;99505.94;;;-6.79
22269;BMP280;11303;50.772;19.670;2024-03-08T05:13:26;99504.94;;;-6.85
22269;BMP280;11303;50.772;19.670;2024-03-08T05:15:28;99504.38;;;-6.87
22269;BMP280;11303;50.772;19.670;2024-03-08T05:17:30;99504.59;;;-6.88
22269;BMP280;11303;50.772;19.670;2024-03-08T05:19:31;99503.22;;;-6.91
22269;BMP280;11303;50.772;19.670;2024-03-08T05:21:35;99509.63;;;-6.88
22269;BMP280;11303;50.772;19.670;2024-03-08T05:23:37;99510.56;;;-6.82
22269;BMP280;11303;50.772;19.670;2024-03-08T05:25:40;99514.66;;;-6.75
22269;BMP280;11303;50.772;19.670;2024-03-08T05:27:42;99508.03;;;-6.62
22269;BMP280;11303;50.772;19.670;2024-03-08T05:29:44;99515.00;;;-6.44
22269;BMP280;11303;50.772;19.670;2024-03-08T05:31:49;99510.31;;;-6.34
22269;BMP280;11303;50.772;19.670;2024-03-08T05:33:51;99513.00;;;-6.22
22269;BMP280;11303;50.772;19.670;2024-03-08T05:35:53;99503.56;;;-6.02
22269;BMP280;11303;50.772;19.670;2024-03-08T05:37:55;99507.22;;;-5.84
22269;BMP280;11303;50.772;19.670;2024-03-08T05:39:56;99516.63;;;-5.59
22269;BMP280;11303;50.772;19.670;2024-03-08T05:41:58;99517.28;;;-5.39
22269;BMP280;11303;50.772;19.670;2024-03-08T05:44:00;99503.06;;;-5.15
22269;BMP280;11303;50.772;19.670;2024-03-08T05:46:01;99499.88;;;-4.85
22269;BMP280;11303;50.772;19.670;2024-03-08T05:48:06;99507.16;;;-4.51
22269;BMP280;11303;50.772;19.670;2024-03-08T05:50:09;99502.25;;;-4.16
22269;BMP280;11303;50.772;19.670;2024-03-08T05:52:12;99501.47;;;-3.86
22269;BMP280;11303;50.772;19.670;2024-03-08T05:54:14;99504.53;;;-3.53
22269;BMP280;11303;50.772;19.670;2024-03-08T05:56:20;99512.13;;;-3.23
22269;BMP280;11303;50.772;19.670;2024-03-08T05:58:21;99512.31;;;-3.01
22269;BMP280;11303;50.772;19.670;2024-03-08T06:00:23;99508.00;;;-2.77
22269;BMP280;11303;50.772;19.670;2024-03-08T06:02:25;99507.03;;;-2.47
22269;BMP280;11303;50.772;19.670;2024-03-08T06:04:27;99505.13;;;-2.11
22269;BMP280;11303;50.772;19.670;2024-03-08T06:06:29;99511.13;;;-1.88
22269;BMP280;11303;50.772;19.670;2024-03-08T06:08:31;99509.06;;;-1.57
22269;BMP280;11303;50.772;19.670;2024-03-08T06:10:33;99509.34;;;-1.20
22269;BMP280;11303;50.772;19.670;2024-03-08T06:12:35;99514.34;;;-0.86
22269;BMP280;11303;50.772;19.670;2024-03-08T06:14:41;99508.97;;;-0.40
22269;BMP280;11303;50.772;19.670;2024-03-08T06:16:43;99506.53;;;-0.03
22269;BMP280;11303;50.772;19.670;2024-03-08T06:18:44;99514.69;;;0.27
22269;BMP280;11303;50.772;19.670;2024-03-08T06:20:48;99514.38;;;0.61
22269;BMP280;11303;50.772;19.670;2024-03-08T06:22:50;99525.97;;;0.79
22269;BMP280;11303;50.772;19.670;2024-03-08T06:24:51;99514.13;;;1.10
22269;BMP280;11303;50.772;19.670;2024-03-08T06:26:53;99526.22;;;1.45
22269;BMP280;11303;50.772;19.670;2024-03-08T06:28:54;99525.78;;;1.74
22269;BMP280;11303;50.772;19.670;2024-03-08T06:30:56;99511.94;;;1.80
22269;BMP280;11303;50.772;19.670;2024-03-08T06:32:58;99529.38;;;2.20
22269;BMP280;11303;50.772;19.670;2024-03-08T06:35:00;99523.97;;;2.21
22269;BMP280;11303;50.772;19.670;2024-03-08T06:37:01;99518.34;;;2.04
22269;BMP280;11303;50.772;19.670;2024-03-08T06:39:03;99520.66;;;2.15
22269;BMP280;11303;50.772;19.670;2024-03-08T06:41:11;99524.22;;;2.40
22269;BMP280;11303;50.772;19.670;2024-03-08T06:43:19;99526.53;;;2.31
22269;BMP280;11303;50.772;19.670;2024-03-08T06:45:21;99521.16;;;2.07
22269;BMP280;11303;50.772;19.670;2024-03-08T06:47:25;99521.16;;;2.02
22269;BMP280;11303;50.772;19.670;2024-03-08T06:49:27;99522.69;;;1.72
22269;BMP280;11303;50.772;19.670;2024-03-08T06:51:28;99516.06;;;1.82
22269;BMP280;11303;50.772;19.670;2024-03-08T06:53:30;99529.13;;;2.16
22269;BMP280;11303;50.772;19.670;2024-03-08T06:55:32;99531.69;;;2.31
22269;BMP280;11303;50.772;19.670;2024-03-08T06:57:34;99530.03;;;2.66
22269;BMP280;11303;50.772;19.670;2024-03-08T06:59:36;99530.53;;;2.68
22269;BMP280;11303;50.772;19.670;2024-03-08T07:01:38;99528.81;;;2.59
22269;BMP280;11303;50.772;19.670;2024-03-08T07:03:43;99531.38;;;2.43
22269;BMP280;11303;50.772;19.670;2024-03-08T07:05:46;99531.88;;;2.61
22269;BMP280;11303;50.772;19.670;2024-03-08T07:07:47;99522.63;;;2.54
22269;BMP280;11303;50.772;19.670;2024-03-08T07:09:50;99532.13;;;2.49
22269;BMP280;11303;50.772;19.670;2024-03-08T07:11:52;99524.94;;;2.61
22269;BMP280;11303;50.772;19.670;2024-03-08T07:13:56;99527.16;;;2.88
22269;BMP280;11303;50.772;19.670;2024-03-08T07:15:59;99523.31;;;2.86
22269;BMP280;11303;50.772;19.670;2024-03-08T07:18:02;99528.66;;;2.89
22269;BMP280;11303;50.772;19.670;2024-03-08T07:20:04;99520.13;;;3.04
22269;BMP280;11303;50.772;19.670;2024-03-08T07:22:12;99518.25;;;3.20
22269;BMP280;11303;50.772;19.670;2024-03-08T07:24:14;99522.06;;;3.28
22269;BMP280;11303;50.772;19.670;2024-03-08T07:26:15;99519.47;;;3.33
22269;BMP280;11303;50.772;19.670;2024-03-08T07:28:18;99520.84;;;3.15
22269;BMP280;11303;50.772;19.670;2024-03-08T07:30:21;99516.81;;;2.99
22269;BMP280;11303;50.772;19.670;2024-03-08T07:33:01;99516.97;;;3.23
22269;BMP280;11303;50.772;19.670;2024-03-08T07:35:04;99505.75;;;3.48
22269;BMP280;11303;50.772;19.670;2024-03-08T07:37:06;99507.03;;;3.51
22269;BMP280;11303;50.772;19.670;2024-03-08T07:39:12;99500.75;;;3.62
22269;BMP280;11303;50.772;19.670;2024-03-08T07:41:15;99506.50;;;3.83
22269;BMP280;11303;50.772;19.670;2024-03-08T07:43:17;99507.25;;;3.89
22269;BMP280;11303;50.772;19.670;2024-03-08T07:45:19;99504.28;;;3.76
22269;BMP280;11303;50.772;19.670;2024-03-08T07:47:21;99502.78;;;3.70
22269;BMP280;11303;50.772;19.670;2024-03-08T07:49:25;99506.03;;;3.81
22269;BMP280;11303;50.772;19.670;2024-03-08T07:51:27;99503.75;;;4.04
22269;BMP280;11303;50.772;19.670;2024-03-08T07:53:29;99511.63;;;4.17
22269;BMP280;11303;50.772;19.670;2024-03-08T07:55:31;99504.38;;;4.19
22269;BMP280;11303;50.772;19.670;2024-03-08T07:57:33;99506.53;;;4.07
22269;BMP280;11303;50.772;19.670;2024-03-08T07:59:34;99508.03;;;4.13
22269;BMP280;11303;50.772;19.670;2024-03-08T08:01:36;99505.53;;;4.56
22269;BMP280;11303;50.772;19.670;2024-03-08T08:03:38;99498.41;;;4.72
22269;BMP280;11303;50.772;19.670;2024-03-08T08:05:39;99504.94;;;4.84
22269;BMP280;11303;50.772;19.670;2024-03-08T08:07:44;99502.13;;;4.61
22269;BMP280;11303;50.772;19.670;2024-03-08T08:09:46;99505.75;;;4.60
22269;BMP280;11303;50.772;19.670;2024-03-08T08:11:47;99506.94;;;4.44
22269;BMP280;11303;50.772;19.670;2024-03-08T08:13:49;99509.16;;;4.31
22269;BMP280;11303;50.772;19.670;2024-03-08T08:15:50;99505.84;;;4.26
22269;BMP280;11303;50.772;19.670;2024-03-08T08:17:52;99496.94;;;4.18
22269;BMP280;11303;50.772;19.670;2024-03-08T08:19:53;99498.97;;;4.21
22269;BMP280;11303;50.772;19.670;2024-03-08T08:21:55;99502.50;;;4.25
22269;BMP280;11303;50.772;19.670;2024-03-08T08:23:57;99511.00;;;4.50
22269;BMP280;11303;50.772;19.670;2024-03-08T08:25:58;99502.69;;;4.34
22269;BMP280;11303;50.772;19.670;2024-03-08T08:28:00;99495.53;;;4.26
22269;BMP280;11303;50.772;19.670;2024-03-08T08:30:04;99499.91;;;4.54
22269;BMP280;11303;50.772;19.670;2024-03-08T08:32:09;99494.66;;;4.41
22269;BMP280;11303;50.772;19.670;2024-03-08T08:34:12;99494.56;;;4.22
22269;BMP280;11303;50.772;19.670;2024-03-08T08:36:15;99502.59;;;4.20
22269;BMP280;11303;50.772;19.670;2024-03-08T08:38:17;99495.75;;;4.34
22269;BMP280;11303;50.772;19.670;2024-03-08T08:40:19;99499.06;;;4.11
22269;BMP280;11303;50.772;19.670;2024-03-08T08:42:20;99502.91;;;4.37
22269;BMP280;11303;50.772;19.670;2024-03-08T08:44:22;99496.19;;;4.42
22269;BMP280;11303;50.772;19.670;2024-03-08T08:46:24;99491.53;;;4.63
22269;BMP280;11303;50.772;19.670;2024-03-08T08:48:25;99491.72;;;5.09
22269;BMP280;11303;50.772;19.670;2024-03-08T08:50:27;99493.22;;;5.29
22269;BMP280;11303;50.772;19.670;2024-03-08T08:52:31;99488.19;;;5.38
22269;BMP280;11303;50.772;19.670;2024-03-08T08:54:33;99479.66;;;5.57
22269;BMP280;11303;50.772;19.670;2024-03-08T08:56:34;99481.72;;;5.41
22269;BMP280;11303;50.772;19.670;2024-03-08T08:58:36;99486.81;;;5.60
22269;BMP280;11303;50.772;19.670;2024-03-08T09:00:39;99477.31;;;5.41
22269;BMP280;11303;50.772;19.670;2024-03-08T09:02:41;99472.28;;;5.50
22269;BMP280;11303;50.772;19.670;2024-03-08T09:04:43;99472.59;;;5.48
22269;BMP280;11303;50.772;19.670;2024-03-08T09:06:45;99477.25;;;5.46
22269;BMP280;11303;50.772;19.670;2024-03-08T09:08:47;99477.25;;;5.46
22269;BMP280;11303;50.772;19.670;2024-03-08T09:10:49;99466.03;;;5.70
22269;BMP280;11303;50.772;19.670;2024-03-08T09:12:52;99472.75;;;5.52
22269;BMP280;11303;50.772;19.670;2024-03-08T09:14:54;99478.94;;;5.18
22269;BMP280;11303;50.772;19.670;2024-03-08T09:16:56;99470.06;;;5.10
22269;BMP280;11303;50.772;19.670;2024-03-08T09:18:57;99463.88;;;4.92
22269;BMP280;11303;50.772;19.670;2024-03-08T09:20:59;99457.41;;;4.76
22269;BMP280;11303;50.772;19.670;2024-03-08T09:23:01;99477.63;;;5.21
22269;BMP280;11303;50.772;19.670;2024-03-08T09:25:03;99465.47;;;5.40
22269;BMP280;11303;50.772;19.670;2024-03-08T09:27:07;99460.94;;;5.65
22269;BMP280;11303;50.772;19.670;2024-03-08T09:29:11;99455.22;;;5.82
22269;BMP280;11303;50.772;19.670;2024-03-08T09:31:13;99458.38;;;5.93
22269;BMP280;11303;50.772;19.670;2024-03-08T09:33:14;99452.84;;;5.99
22269;BMP280;11303;50.772;19.670;2024-03-08T09:35:20;99454.06;;;5.60
22269;BMP280;11303;50.772;19.670;2024-03-08T09:37:22;99445.84;;;5.72
22269;BMP280;11303;50.772;19.670;2024-03-08T09:39:24;99444.81;;;5.59
22269;BMP280;11303;50.772;19.670;2024-03-08T09:41:28;99450.03;;;5.68
22269;BMP280;11303;50.772;19.670;2024-03-08T09:43:32;99442.34;;;5.96
22269;BMP280;11303;50.772;19.670;2024-03-08T09:45:36;99443.47;;;6.03
22269;BMP280;11303;50.772;19.670;2024-03-08T09:47:44;99443.41;;;5.95
22269;BMP280;11303;50.772;19.670;2024-03-08T09:49:45;99436.09;;;5.83
22269;BMP280;11303;50.772;19.670;2024-03-08T09:51:47;99437.47;;;5.80
22269;BMP280;11303;50.772;19.670;2024-03-08T09:53:55;99434.19;;;5.61
22269;BMP280;11303;50.772;19.670;2024-03-08T09:55:58;99436.97;;;5.78
22269;BMP280;11303;50.772;19.670;2024-03-08T09:58:02;99439.44;;;5.97
22269;BMP280;11303;50.772;19.670;2024-03-08T10:00:38;99431.34;;;5.76
22269;BMP280;11303;50.772;19.670;2024-03-08T10:02:41;99427.97;;;5.76
22269;BMP280;11303;50.772;19.670;2024-03-08T10:04:43;99433.63;;;6.33
22269;BMP280;11303;50.772;19.670;2024-03-08T10:06:48;99433.59;;;6.70
22269;BMP280;11303;50.772;19.670;2024-03-08T10:08:50;99431.66;;;6.53
22269;BMP280;11303;50.772;19.670;2024-03-08T10:10:56;99432.88;;;6.05
22269;BMP280;11303;50.772;19.670;2024-03-08T10:13:07;99428.09;;;5.98
22269;BMP280;11303;50.772;19.670;2024-03-08T10:15:09;99429.41;;;5.68
22269;BMP280;11303;50.772;19.670;2024-03-08T10:17:12;99426.31;;;5.52
22269;BMP280;11303;50.772;19.670;2024-03-08T10:19:13;99430.38;;;5.72
22269;BMP280;11303;50.772;19.670;2024-03-08T10:21:15;99426.38;;;5.80
22269;BMP280;11303;50.772;19.670;2024-03-08T10:23:18;99432.78;;;6.10
22269;BMP280;11303;50.772;19.670;2024-03-08T10:25:20;99427.13;;;6.22
22269;BMP280;11303;50.772;19.670;2024-03-08T10:27:21;99428.81;;;6.26
22269;BMP280;11303;50.772;19.670;2024-03-08T10:29:23;99422.75;;;5.95
22269;BMP280;11303;50.772;19.670;2024-03-08T10:31:25;99416.34;;;5.92
22269;BMP280;11303;50.772;19.670;2024-03-08T10:33:27;99421.09;;;6.13
22269;BMP280;11303;50.772;19.670;2024-03-08T10:35:30;99420.03;;;6.14
22269;BMP280;11303;50.772;19.670;2024-03-08T10:37:32;99426.19;;;5.76
22269;BMP280;11303;50.772;19.670;2024-03-08T10:39:36;99416.44;;;6.01
22269;BMP280;11303;50.772;19.670;2024-03-08T10:41:39;99416.16;;;5.88
22269;BMP280;11303;50.772;19.670;2024-03-08T10:48:50;99407.38;;;6.40
22269;BMP280;11303;50.772;19.670;2024-03-08T10:50:54;99416.41;;;6.15
22269;BMP280;11303;50.772;19.670;2024-03-08T10:52:57;99411.19;;;5.78
22269;BMP280;11303;50.772;19.670;2024-03-08T10:54:59;99413.00;;;5.92
22269;BMP280;11303;50.772;19.670;2024-03-08T10:57:03;99402.00;;;5.72
22269;BMP280;11303;50.772;19.670;2024-03-08T10:59:08;99398.75;;;5.80
22269;BMP280;11303;50.772;19.670;2024-03-08T11:01:10;99401.50;;;6.12
22269;BMP280;11303;50.772;19.670;2024-03-08T11:03:48;99400.28;;;5.95
22269;BMP280;11303;50.772;19.670;2024-03-08T11:05:52;99395.88;;;5.82
22269;BMP280;11303;50.772;19.670;2024-03-08T11:07:54;99396.75;;;5.77
22269;BMP280;11303;50.772;19.670;2024-03-08T11:09:56;99394.06;;;5.96
22269;BMP280;11303;50.772;19.670;2024-03-08T11:12:20;99395.50;;;6.02
22269;BMP280;11303;50.772;19.670;2024-03-08T11:14:43;99386.00;;;6.25
22269;BMP280;11303;50.772;19.670;2024-03-08T11:16:45;99392.94;;;6.25
22269;BMP280;11303;50.772;19.670;2024-03-08T11:18:47;99391.91;;;6.26
22269;BMP280;11303;50.772;19.670;2024-03-08T11:20:49;99384.47;;;6.24
22269;BMP280;11303;50.772;19.670;2024-03-08T11:23:04;99382.94;;;6.23
22269;BMP280;11303;50.772;19.670;2024-03-08T11:25:31;99383.91;;;6.14
22269;BMP280;11303;50.772;19.670;2024-03-08T11:27:33;99380.31;;;6.01
22269;BMP280;11303;50.772;19.670;2024-03-08T11:29:36;99369.75;;;6.11
22269;BMP280;11303;50.772;19.670;2024-03-08T11:31:39;99364.59;;;5.97
22269;BMP280;11303;50.772;19.670;2024-03-08T11:33:41;99363.09;;;6.10
22269;BMP280;11303;50.772;19.670;2024-03-08T11:35:46;99364.81;;;6.01
22269;BMP280;11303;50.772;19.670;2024-03-08T11:37:47;99354.28;;;5.97
22269;BMP280;11303;50.772;19.670;2024-03-08T11:39:51;99354.81;;;6.22
22269;BMP280;11303;50.772;19.670;2024-03-08T11:41:53;99365.50;;;6.29
22269;BMP280;11303;50.772;19.670;2024-03-08T11:44:05;99341.50;;;6.29
22269;BMP280;11303;50.772;19.670;2024-03-08T11:46:11;99362.63;;;6.31
22269;BMP280;11303;50.772;19.670;2024-03-08T11:48:16;99345.31;;;6.31